Flight Track Log - Related Links

Times and Time Zones

All times are in EDT time to prevent confusion due to time zone crossing. See the UAL4180 flight status page for this flight to view local times or setup timezone preferences in your user account.

Time Position Orientation Groundspeed Altitude Reporting Facility
EDT Latitude Longitude Course Direction KTS MPH feet Rate Location/Type
Fri 05:10:59 PM 41.9667 -87.9667 254° West 199 229 3,100  Level Chicago TRACON
Fri 05:11:59 PM 41.9667 -88.0500 270° West 228 262 5,000 1,754 Climbing Chicago TRACON
Fri 05:13:09 PM 41.9594 -88.1575 265° West 231 266 6,900 2,120 Climbing Chicago Center
Fri 05:14:12 PM 41.9633 -88.2525 273° West 253 291 9,700 2,352 Climbing Chicago Center
Fri 05:15:14 PM 41.9642 -88.3506 271° West 262 302 11,800 1,645 Climbing Chicago Center
Fri 05:16:00 PM 41.7951 -88.6567 254° West  Level FlightAware Approximate
Fri 05:16:16 PM 41.9600 -88.4617 267° West 301 346 13,100  Level Chicago Center
Fri 05:17:18 PM 41.9217 -88.6017 250° West 333 383 15,000 1,790 Climbing Chicago Center
Fri 05:18:20 PM 41.8872 -88.7203 249° West 343 395 16,800 1,694 Climbing Chicago Center
Fri 05:19:22 PM 41.8533 -88.8403 249° West 346 398 18,500 1,694 Climbing Chicago Center
Fri 05:20:24 PM 41.8192 -88.9567 249° West 342 394 20,300 1,887 Climbing Chicago Center
Fri 05:21:26 PM 41.7869 -89.0717 249° West 335 386 22,400 2,226 Climbing Chicago Center
Fri 05:22:28 PM 41.7469 -89.2069 248° West 330 380 24,900 2,226 Climbing Chicago Center
Fri 05:23:30 PM 41.7153 -89.3142 248° West 319 367 27,000 1,839 Climbing Chicago Center
Fri 05:24:32 PM 41.6856 -89.4169 249° West 305 351 28,700 1,597 Climbing Chicago Center
Fri 05:25:34 PM 41.6572 -89.5164 249° West 293 337 30,300 1,440 Climbing Chicago Center
Fri 05:26:37 PM 41.6261 -89.6192 248° West 291 335 31,700 1,296 Climbing Chicago Center
Fri 05:27:39 PM 41.5981 -89.7186 249° West 289 333 33,000 1,306 Climbing Chicago Center
Fri 05:28:41 PM 41.5694 -89.8153 248° West 283 326 34,400 1,111 Climbing Chicago Center
Fri 05:30:21 PM 41.5194 -89.9853 249° West 269 310 36,000 774 Climbing Kansas City Center
Fri 05:30:45 PM 41.5092 -90.0200 248° West 270 311 36,000  Level Chicago Center
Fri 05:31:47 PM 41.4792 -90.1197 248° West 284 327 36,000  Level Chicago Center
Fri 05:32:49 PM 41.4461 -90.2269 248° West 306 352 36,000  Level Chicago Center
Fri 05:33:51 PM 41.4119 -90.3411 248° West 326 375 36,000  Level Chicago Center
Fri 05:34:53 PM 41.3686 -90.4867 248° West 347 399 36,000  Level Chicago Center
Fri 05:35:55 PM 41.3308 -90.6100 248° West 358 412 36,000  Level Chicago Center
Fri 05:36:57 PM 41.2775 -90.7361 241° Southwest 383 441 36,000  Level Chicago Center
Fri 05:37:59 PM 41.2244 -90.8556 239° Southwest 379 436 36,000  Level Chicago Center
Fri 05:39:02 PM 41.1697 -90.9764 239° Southwest 383 441 36,000  Level Chicago Center
Fri 05:40:04 PM 41.1178 -91.0942 240° Southwest 373 429 36,000  Level Chicago Center
Fri 05:41:06 PM 41.0569 -91.2281 239° Southwest 357 411 36,000  Level Chicago Center
Fri 05:42:08 PM 41.0089 -91.3333 239° Southwest 340 391 36,000  Level Chicago Center
Fri 05:43:10 PM 40.9606 -91.4408 239° Southwest 330 380 36,000  Level Chicago Center
Fri 05:44:12 PM 40.9136 -91.5417 238° Southwest 325 374 36,000  Level Chicago Center
Fri 05:45:14 PM 40.8669 -91.6456 239° Southwest 331 381 36,000  Level Chicago Center
Fri 05:46:16 PM 40.8181 -91.7483 238° Southwest 332 382 36,000  Level Chicago Center
Fri 05:47:18 PM 40.7608 -91.8750 239° Southwest 339 390 36,000  Level Chicago Center
Fri 05:48:20 PM 40.7117 -91.9794 238° Southwest 338 389 36,000  Level Chicago Center
Fri 05:49:22 PM 40.6633 -92.0839 239° Southwest 338 389 36,000  Level Chicago Center
Fri 05:50:24 PM 40.6142 -92.1889 238° Southwest 339 390 36,000  Level Chicago Center
Fri 05:51:04 PM 40.5842 -92.2517 238° Southwest 339 390 36,000  Level Kansas City Center
Fri 05:52:04 PM 40.5336 -92.3586 238° Southwest 338 389 36,000  Level Kansas City Center
Fri 05:53:08 PM 40.4739 -92.4861 238° Southwest 341 392 36,000  Level Kansas City Center
Fri 05:54:09 PM 40.4231 -92.5917 238° Southwest 342 394 36,000  Level Kansas City Center
Fri 05:55:12 PM 40.3714 -92.7000 238° Southwest 343 395 36,000  Level Kansas City Center
Fri 05:56:13 PM 40.3150 -92.8164 238° Southwest 340 391 36,000  Level Kansas City Center
Fri 05:57:17 PM 40.2669 -92.9183 238° Southwest 342 394 36,000  Level Kansas City Center
Fri 05:58:17 PM 40.2189 -93.0192 238° Southwest 341 392 36,000  Level Kansas City Center
Fri 05:59:19 PM 40.1686 -93.1236 238° Southwest 342 394 36,000  Level Kansas City Center
Fri 06:00:22 PM 40.1053 -93.2475 236° Southwest 347 399 36,000  Level Kansas City Center
Fri 06:01:23 PM 40.0589 -93.3539 240° Southwest 341 392 36,000  Level Kansas City Center
Fri 06:02:27 PM 40.0064 -93.4569 236° Southwest 342 394 36,000  Level Kansas City Center
Fri 06:03:27 PM 39.9547 -93.5606 237° Southwest 343 395 36,000  Level Kansas City Center
Fri 06:04:30 PM 39.9039 -93.6644 237° Southwest 343 395 36,000  Level Kansas City Center
Fri 06:05:34 PM 39.8431 -93.7900 238° Southwest 343 395 36,000  Level Kansas City Center
Fri 06:06:34 PM 39.7947 -93.8894 238° Southwest 340 391 36,000  Level Kansas City Center
Fri 06:07:38 PM 39.7364 -94.0064 237° Southwest 345 397 36,000  Level Kansas City Center
Fri 06:08:38 PM 39.6875 -94.1067 238° Southwest 344 396 36,000  Level Kansas City Center
Fri 06:09:42 PM 39.6286 -94.2231 237° Southwest 345 397 36,000  Level Kansas City Center
Fri 06:10:43 PM 39.5786 -94.3236 237° Southwest 346 398 36,000  Level Kansas City Center
Fri 06:11:44 PM 39.5200 -94.4406 237° Southwest 346 398 36,000 -240 Level Kansas City Center
Fri 06:12:48 PM 39.4700 -94.5403 237° Southwest 346 398 35,500 -672 Descending Kansas City Center
Fri 06:13:49 PM 39.4203 -94.6394 237° Southwest 344 396 34,600 -726 Descending Kansas City Center
Fri 06:14:52 PM 39.3628 -94.7533 237° Southwest 338 389 34,000 -290 Descending Kansas City Center
Fri 06:15:53 PM 39.3122 -94.8494 236° Southwest 337 388 34,000  Level Kansas City Center
Fri 06:16:56 PM 39.2556 -94.9619 237° Southwest 335 386 34,000  Level Kansas City Center
Fri 06:17:56 PM 39.2053 -95.0592 236° Southwest 337 388 34,000  Level Kansas City Center
Fri 06:18:58 PM 39.1444 -95.1772 236° Southwest 340 391 34,000  Level Kansas City Center
Fri 06:20:01 PM 39.0914 -95.2803 236° Southwest 346 398 34,000  Level Kansas City Center
Fri 06:21:02 PM 39.0383 -95.3836 237° Southwest 346 398 34,000  Level Kansas City Center
Fri 06:22:05 PM 38.9825 -95.4914 236° Southwest 347 399 34,000  Level Kansas City Center
Fri 06:23:06 PM 38.9303 -95.5922 236° Southwest 351 404 34,000  Level Kansas City Center
Fri 06:24:10 PM 38.8675 -95.7097 236° Southwest 356 410 34,000  Level Kansas City Center
Fri 06:25:11 PM 38.8167 -95.8122 238° Southwest 356 410 34,000  Level Kansas City Center
Fri 06:26:12 PM 38.7542 -95.9286 235° Southwest 355 409 34,000 -240 Level Kansas City Center
Fri 06:27:16 PM 38.7017 -96.0297 236° Southwest 355 409 33,500 -1,548 Descending Kansas City Center
Fri 06:28:16 PM 38.6367 -96.1522 236° Southwest 368 423 30,800 -2,419 Descending Kansas City Center
Fri 06:29:20 PM 38.5850 -96.2500 236° Southwest 349 402 28,500 -2,274 Descending Kansas City Center
Fri 06:30:20 PM 38.5344 -96.3450 236° Southwest 339 390 26,100 -2,537 Descending Kansas City Center
Fri 06:31:23 PM 38.4769 -96.4508 235° Southwest 325 374 23,300 -2,504 Descending Kansas City Center
Fri 06:32:27 PM 38.4272 -96.5433 236° Southwest 325 374 20,800 -2,352 Descending Kansas City Center
Fri 06:33:28 PM 38.3789 -96.6358 236° Southwest 315 362 18,400 -2,311 Descending Kansas City Center
Fri 06:34:29 PM 38.3319 -96.7269 237° Southwest 308 354 16,100 -2,602 Descending Kansas City Center
Fri 06:34:51 PM 38.3047 -96.7747 234° Southwest 304 350 14,800 -2,739 Descending Kansas City Center
Fri 06:35:15 PM 38.2847 -96.8072 232° Southwest 303 349 14,000 -1,692 Descending Kansas City Center
Fri 06:35:30 PM 38.2742 -96.8311 241° Southwest 300 345 13,700 -1,100 Descending Kansas City Center
Fri 06:36:15 PM 38.2389 -96.8922 234° Southwest 291 335 12,900 -1,143 Descending Kansas City Center
Fri 06:36:33 PM 38.2281 -96.9139 238° Southwest 290 334 12,500 -1,676 Descending Kansas City Center
Fri 06:37:23 PM 38.1906 -96.9772 233° Southwest 276 318 11,000 -2,108 Descending Kansas City Center
Fri 06:38:24 PM 38.1333 -97.0558 227° Southwest 282 325 8,600 -2,139 Descending Kansas City Center
Fri 06:39:18 PM 38.0892 -97.1186 228° Southwest 286 329 6,900 -1,658 Descending Kansas City Center
Fri 06:39:40 PM 38.0767 -97.1414 235° Southwest 287 330 6,500 -885 Descending Kansas City Center
Fri 06:40:19 PM 38.0397 -97.1931 228° Southwest 279 321 6,000 -600 Descending Kansas City Center
Fri 06:40:40 PM 38.0283 -97.2122 233° Southwest 268 308 5,900  Descending Kansas City Center
Fri 06:41:26 PM 37.9883 -97.2675 227° Southwest 234 269 6,000  Climbing Kansas City Center
Fri 06:41:44 PM 37.9842 -97.2739 230° Southwest 240 276 5,900 -787 Descending Kansas City Center
Fri 06:42:27 PM 37.9436 -97.3039 210° Southwest 185 213 5,200 -984 Descending Kansas City Center
Fri 06:42:45 PM 37.9289 -97.3119 203° Southwest 190 219 4,900 -1,031 Descending Kansas City Center
Fri 06:43:31 PM 37.8892 -97.3283 198° South 177 204 4,100 -885 Descending Kansas City Center
Fri 06:43:46 PM 37.8814 -97.3336 208° Southwest 183 211 4,000 -100 Descending Kansas City Center
Fri 06:44:31 PM 37.8428 -97.3486 197° South 174 200 4,000  Level Kansas City Center
Fri 06:44:49 PM 37.8353 -97.3550 214° Southwest 179 206 4,000 -689 Level Kansas City Center
Fri 06:45:32 PM 37.7989 -97.3714 200° South 171 197 3,300 -885 Descending Kansas City Center
Fri 06:45:50 PM 37.7911 -97.3750 200° South 175 201 3,100 -286 Descending Kansas City Center
Fri 06:46:35 PM 37.7564 -97.3886 197° South 164 189 3,000 -190 Descending Kansas City Center
Fri 06:46:53 PM 37.7481 -97.3944 209° Southwest 169 194 2,900 -610 Descending Kansas City Center
Fri 06:47:34 PM 37.7144 -97.4111 201° Southwest 156 180 2,400 -581 Descending Kansas City Center
Fri 06:47:55 PM 37.7075 -97.4131 192° South 163 188 2,300 -667 Descending Kansas City Center
Fri 06:48:28 PM 37.6825 -97.4267 203° Southwest 138 159 1,800 -800 Descending Kansas City Center
Fri 06:48:55 PM 37.6717 -97.4303 195° South 151 174 1,500 -667 Descending Kansas City Center
Fri 06:50:00 PM 37.6499 -97.4331 191° South  Level Estimated
Fri 06:57:00 PM 37.6499 -97.4331 191° South  Level Estimated
Fri 06:58:00 PM 37.6499 -97.4331 191° South  Level Estimated
Fri 06:59:00 PM 37.6499 -97.4331 191° South  Level Estimated

Login

Don't have an account? Register now (free) for customized features, flight alerts, and more!